sensor_id;sensor_type;location;lat;lon;timestamp;pressure;altitude;pressure_sealevel;temperature;humidity
34931;BME280;21134;49.646;8.560;2023-01-29T00:01:02;101830.03;;;0.32;72.26
34931;BME280;21134;49.646;8.560;2023-01-29T00:03:31;101822.56;;;0.34;72.70
34931;BME280;21134;49.646;8.560;2023-01-29T00:05:58;101823.34;;;0.33;72.74
34931;BME280;21134;49.646;8.560;2023-01-29T00:08:25;101826.63;;;0.32;72.77
34931;BME280;21134;49.646;8.560;2023-01-29T00:10:51;101823.16;;;0.30;73.68
34931;BME280;21134;49.646;8.560;2023-01-29T00:13:18;101834.09;;;0.30;74.08
34931;BME280;21134;49.646;8.560;2023-01-29T00:15:52;101815.50;;;0.28;74.84
34931;BME280;21134;49.646;8.560;2023-01-29T00:18:19;101812.97;;;0.28;73.94
34931;BME280;21134;49.646;8.560;2023-01-29T00:20:47;101826.28;;;0.26;73.10
34931;BME280;21134;49.646;8.560;2023-01-29T00:23:13;101824.31;;;0.21;73.15
34931;BME280;21134;49.646;8.560;2023-01-29T00:25:40;101823.44;;;0.21;73.41
34931;BME280;21134;49.646;8.560;2023-01-29T00:28:07;101827.63;;;0.20;73.36
34931;BME280;21134;49.646;8.560;2023-01-29T00:30:34;101825.09;;;0.20;73.03
34931;BME280;21134;49.646;8.560;2023-01-29T00:33:01;101825.88;;;0.19;73.83
34931;BME280;21134;49.646;8.560;2023-01-29T00:35:28;101826.81;;;0.21;74.13
34931;BME280;21134;49.646;8.560;2023-01-29T00:37:56;101825.97;;;0.21;74.48
34931;BME280;21134;49.646;8.560;2023-01-29T00:40:23;101832.66;;;0.20;75.71
34931;BME280;21134;49.646;8.560;2023-01-29T00:42:50;101830.91;;;0.19;75.58
34931;BME280;21134;49.646;8.560;2023-01-29T00:45:35;101834.97;;;0.17;76.28
34931;BME280;21134;49.646;8.560;2023-01-29T00:48:03;101839.22;;;0.05;77.37
34931;BME280;21134;49.646;8.560;2023-01-29T00:50:30;101835.06;;;0.06;77.80
34931;BME280;21134;49.646;8.560;2023-01-29T00:52:58;101839.22;;;0.05;78.15
34931;BME280;21134;49.646;8.560;2023-01-29T00:55:24;101838.94;;;0.01;78.37
34931;BME280;21134;49.646;8.560;2023-01-29T00:57:51;101843.41;;;0.05;78.97
34931;BME280;21134;49.646;8.560;2023-01-29T01:00:18;101840.69;;;0.02;79.29
34931;BME280;21134;49.646;8.560;2023-01-29T01:02:45;101842.22;;;-0.01;78.76
34931;BME280;21134;49.646;8.560;2023-01-29T01:05:29;101849.69;;;-0.02;77.83
34931;BME280;21134;49.646;8.560;2023-01-29T01:07:57;101849.69;;;-0.02;78.14
34931;BME280;21134;49.646;8.560;2023-01-29T01:10:26;101839.63;;;-0.02;78.19
34931;BME280;21134;49.646;8.560;2023-01-29T01:12:54;101842.63;;;0.06;78.42
34931;BME280;21134;49.646;8.560;2023-01-29T01:15:21;101842.72;;;0.07;76.19
34931;BME280;21134;49.646;8.560;2023-01-29T01:17:51;101835.94;;;0.06;74.54
34931;BME280;21134;49.646;8.560;2023-01-29T01:20:18;101838.56;;;0.08;74.60
34931;BME280;21134;49.646;8.560;2023-01-29T01:22:44;101839.63;;;0.11;74.97
34931;BME280;21134;49.646;8.560;2023-01-29T01:25:12;101832.94;;;0.12;74.39
34931;BME280;21134;49.646;8.560;2023-01-29T01:27:39;101826.63;;;0.18;73.62
34931;BME280;21134;49.646;8.560;2023-01-29T01:30:09;101825.78;;;0.18;73.81
34931;BME280;21134;49.646;8.560;2023-01-29T01:32:36;101825.56;;;0.28;73.16
34931;BME280;21134;49.646;8.560;2023-01-29T01:35:03;101827.13;;;0.26;73.25
34931;BME280;21134;49.646;8.560;2023-01-29T01:37:30;101830.22;;;0.22;72.89
34931;BME280;21134;49.646;8.560;2023-01-29T01:39:56;101831.88;;;0.21;73.09
34931;BME280;21134;49.646;8.560;2023-01-29T01:42:27;101832.72;;;0.22;72.89
34931;BME280;21134;49.646;8.560;2023-01-29T01:44:57;101834.69;;;0.26;73.04
34931;BME280;21134;49.646;8.560;2023-01-29T01:47:30;101824.63;;;0.26;72.54
34931;BME280;21134;49.646;8.560;2023-01-29T01:50:03;101826.28;;;0.26;72.62
34931;BME280;21134;49.646;8.560;2023-01-29T01:52:32;101810.28;;;0.25;72.99
34931;BME280;21134;49.646;8.560;2023-01-29T01:55:01;101811.16;;;0.26;72.41
34931;BME280;21134;49.646;8.560;2023-01-29T01:57:30;101821.25;;;0.26;72.88
34931;BME280;21134;49.646;8.560;2023-01-29T01:59:58;101806.03;;;0.24;73.27
34931;BME280;21134;49.646;8.560;2023-01-29T02:02:34;101812.94;;;0.41;71.51
34931;BME280;21134;49.646;8.560;2023-01-29T02:05:19;101809.78;;;0.31;71.81
34931;BME280;21134;49.646;8.560;2023-01-29T02:08:03;101808.91;;;0.30;71.50
34931;BME280;21134;49.646;8.560;2023-01-29T02:10:48;101798.47;;;0.24;71.92
34931;BME280;21134;49.646;8.560;2023-01-29T02:13:16;101797.59;;;0.23;71.92
34931;BME280;21134;49.646;8.560;2023-01-29T02:15:43;101800.00;;;0.22;71.56
34931;BME280;21134;49.646;8.560;2023-01-29T02:18:13;101790.72;;;0.21;71.57
34931;BME280;21134;49.646;8.560;2023-01-29T02:20:41;101790.66;;;0.19;71.18
34931;BME280;21134;49.646;8.560;2023-01-29T02:23:31;101789.75;;;0.19;71.54
34931;BME280;21134;49.646;8.560;2023-01-29T02:26:18;101782.00;;;0.16;72.66
34931;BME280;21134;49.646;8.560;2023-01-29T02:28:50;101782.72;;;0.13;73.47
34931;BME280;21134;49.646;8.560;2023-01-29T02:31:26;101779.34;;;0.13;73.39
34931;BME280;21134;49.646;8.560;2023-01-29T02:34:00;101782.59;;;0.12;74.13
34931;BME280;21134;49.646;8.560;2023-01-29T02:36:34;101782.16;;;0.04;75.38
34931;BME280;21134;49.646;8.560;2023-01-29T02:39:08;101783.50;;;-0.01;75.34
34931;BME280;21134;49.646;8.560;2023-01-29T02:41:42;101785.13;;;-0.02;74.94
34931;BME280;21134;49.646;8.560;2023-01-29T02:44:17;101778.56;;;0.01;75.43
34931;BME280;21134;49.646;8.560;2023-01-29T02:46:53;101783.31;;;-0.04;76.33
34931;BME280;21134;49.646;8.560;2023-01-29T02:49:24;101786.69;;;-0.04;77.10
34931;BME280;21134;49.646;8.560;2023-01-29T02:51:58;101777.50;;;-0.03;77.01
34931;BME280;21134;49.646;8.560;2023-01-29T02:54:31;101774.69;;;-0.08;76.19
34931;BME280;21134;49.646;8.560;2023-01-29T02:57:04;101779.72;;;-0.08;76.13
34931;BME280;21134;49.646;8.560;2023-01-29T02:59:38;101785.34;;;-0.12;76.64
34931;BME280;21134;49.646;8.560;2023-01-29T03:02:09;101780.78;;;-0.17;75.81
34931;BME280;21134;49.646;8.560;2023-01-29T03:04:40;101779.06;;;-0.18;75.98
34931;BME280;21134;49.646;8.560;2023-01-29T03:07:15;101794.03;;;-0.20;76.41
34931;BME280;21134;49.646;8.560;2023-01-29T03:10:09;101798.00;;;-0.24;77.05
34931;BME280;21134;49.646;8.560;2023-01-29T03:12:38;101798.59;;;-0.28;77.67
34931;BME280;21134;49.646;8.560;2023-01-29T03:15:10;101805.16;;;-0.30;77.87
34931;BME280;21134;49.646;8.560;2023-01-29T03:17:44;101808.13;;;-0.35;77.68
34931;BME280;21134;49.646;8.560;2023-01-29T03:20:15;101813.28;;;-0.34;77.70
34931;BME280;21134;49.646;8.560;2023-01-29T03:22:44;101812.63;;;-0.31;78.35
34931;BME280;21134;49.646;8.560;2023-01-29T03:25:17;101811.56;;;-0.35;78.94
34931;BME280;21134;49.646;8.560;2023-01-29T03:28:05;101819.75;;;-0.37;79.68
34931;BME280;21134;49.646;8.560;2023-01-29T03:30:52;101809.59;;;-0.39;79.77
34931;BME280;21134;49.646;8.560;2023-01-29T03:33:41;101813.75;;;-0.39;80.14
34931;BME280;21134;49.646;8.560;2023-01-29T03:36:13;101813.66;;;-0.41;79.82
34931;BME280;21134;49.646;8.560;2023-01-29T03:38:42;101811.16;;;-0.41;80.87
34931;BME280;21134;49.646;8.560;2023-01-29T03:41:14;101807.94;;;-0.38;80.32
34931;BME280;21134;49.646;8.560;2023-01-29T03:43:50;101801.38;;;-0.36;80.04
34931;BME280;21134;49.646;8.560;2023-01-29T03:46:25;101805.75;;;-0.34;79.25
34931;BME280;21134;49.646;8.560;2023-01-29T03:48:58;101820.03;;;-0.33;79.83
34931;BME280;21134;49.646;8.560;2023-01-29T03:51:31;101824.31;;;-0.32;78.92
34931;BME280;21134;49.646;8.560;2023-01-29T03:54:04;101826.72;;;-0.33;79.16
34931;BME280;21134;49.646;8.560;2023-01-29T03:56:41;101833.47;;;-0.32;79.80
34931;BME280;21134;49.646;8.560;2023-01-29T03:59:17;101832.72;;;-0.31;80.04
34931;BME280;21134;49.646;8.560;2023-01-29T04:01:50;101847.16;;;-0.29;80.45
34931;BME280;21134;49.646;8.560;2023-01-29T04:04:21;101837.97;;;-0.28;80.46
34931;BME280;21134;49.646;8.560;2023-01-29T04:06:49;101838.91;;;-0.26;80.80
34931;BME280;21134;49.646;8.560;2023-01-29T04:09:19;101820.56;;;-0.25;80.83
34931;BME280;21134;49.646;8.560;2023-01-29T04:11:53;101816.59;;;-0.21;80.67
34931;BME280;21134;49.646;8.560;2023-01-29T04:14:21;101817.66;;;-0.18;81.19
34931;BME280;21134;49.646;8.560;2023-01-29T04:16:51;101810.78;;;-0.20;81.10
34931;BME280;21134;49.646;8.560;2023-01-29T04:19:19;101806.72;;;-0.18;81.09
34931;BME280;21134;49.646;8.560;2023-01-29T04:21:47;101805.66;;;-0.22;80.79
34931;BME280;21134;49.646;8.560;2023-01-29T04:24:16;101805.47;;;-0.25;80.67
34931;BME280;21134;49.646;8.560;2023-01-29T04:26:55;101805.47;;;-0.25;80.59
34931;BME280;21134;49.646;8.560;2023-01-29T04:29:38;101815.63;;;-0.24;80.24
34931;BME280;21134;49.646;8.560;2023-01-29T04:32:10;101822.19;;;-0.26;79.52
34931;BME280;21134;49.646;8.560;2023-01-29T04:34:50;101817.16;;;-0.26;79.48
34931;BME280;21134;49.646;8.560;2023-01-29T04:37:28;101807.09;;;-0.26;80.23
34931;BME280;21134;49.646;8.560;2023-01-29T04:40:03;101801.50;;;-0.21;80.78
34931;BME280;21134;49.646;8.560;2023-01-29T04:42:41;101791.13;;;-0.26;81.54
34931;BME280;21134;49.646;8.560;2023-01-29T04:45:17;101783.50;;;-0.28;81.82
34931;BME280;21134;49.646;8.560;2023-01-29T04:47:51;101780.00;;;-0.30;82.09
34931;BME280;21134;49.646;8.560;2023-01-29T04:50:27;101779.53;;;-0.37;82.42
34931;BME280;21134;49.646;8.560;2023-01-29T04:53:00;101772.59;;;-0.41;82.94
34931;BME280;21134;49.646;8.560;2023-01-29T04:55:35;101770.53;;;-0.47;83.64
34931;BME280;21134;49.646;8.560;2023-01-29T04:58:06;101783.78;;;-0.50;83.28
34931;BME280;21134;49.646;8.560;2023-01-29T05:00:39;101765.97;;;-0.53;84.02
34931;BME280;21134;49.646;8.560;2023-01-29T05:03:09;101766.06;;;-0.51;84.23
34931;BME280;21134;49.646;8.560;2023-01-29T05:05:39;101772.66;;;-0.53;84.33
34931;BME280;21134;49.646;8.560;2023-01-29T05:08:07;101780.66;;;-0.59;83.70
34931;BME280;21134;49.646;8.560;2023-01-29T05:10:34;101781.31;;;-0.61;83.91
34931;BME280;21134;49.646;8.560;2023-01-29T05:13:02;101785.50;;;-0.62;84.87
34931;BME280;21134;49.646;8.560;2023-01-29T05:15:35;101791.19;;;-0.64;84.61
34931;BME280;21134;49.646;8.560;2023-01-29T05:18:02;101790.97;;;-0.67;84.69
34931;BME280;21134;49.646;8.560;2023-01-29T05:20:37;101795.34;;;-0.65;84.64
34931;BME280;21134;49.646;8.560;2023-01-29T05:23:04;101805.59;;;-0.62;84.51
34931;BME280;21134;49.646;8.560;2023-01-29T05:25:34;101809.63;;;-0.64;84.43
34931;BME280;21134;49.646;8.560;2023-01-29T05:28:00;101822.97;;;-0.65;84.05
34931;BME280;21134;49.646;8.560;2023-01-29T05:30:30;101817.19;;;-0.64;83.79
34931;BME280;21134;49.646;8.560;2023-01-29T05:32:57;101824.91;;;-0.61;83.81
34931;BME280;21134;49.646;8.560;2023-01-29T05:35:23;101818.16;;;-0.62;83.07
34931;BME280;21134;49.646;8.560;2023-01-29T05:37:51;101808.09;;;-0.62;83.22
34931;BME280;21134;49.646;8.560;2023-01-29T05:40:18;101806.38;;;-0.63;83.63
34931;BME280;21134;49.646;8.560;2023-01-29T05:42:44;101806.38;;;-0.63;83.41
34931;BME280;21134;49.646;8.560;2023-01-29T05:45:10;101801.34;;;-0.63;83.66
34931;BME280;21134;49.646;8.560;2023-01-29T05:47:37;101792.94;;;-0.63;83.18
34931;BME280;21134;49.646;8.560;2023-01-29T05:50:04;101786.34;;;-0.61;83.00
34931;BME280;21134;49.646;8.560;2023-01-29T05:52:31;101789.66;;;-0.62;83.99
34931;BME280;21134;49.646;8.560;2023-01-29T05:54:59;101789.84;;;-0.59;83.71
34931;BME280;21134;49.646;8.560;2023-01-29T05:57:25;101790.03;;;-0.56;83.59
34931;BME280;21134;49.646;8.560;2023-01-29T05:59:52;101779.78;;;-0.59;84.04
34931;BME280;21134;49.646;8.560;2023-01-29T06:02:18;101790.63;;;-0.60;84.52
34931;BME280;21134;49.646;8.560;2023-01-29T06:04:45;101804.94;;;-0.59;84.75
34931;BME280;21134;49.646;8.560;2023-01-29T06:07:11;101800.56;;;-0.62;84.13
34931;BME280;21134;49.646;8.560;2023-01-29T06:09:38;101809.19;;;-0.58;84.25
34931;BME280;21134;49.646;8.560;2023-01-29T06:12:06;101810.16;;;-0.56;83.80
34931;BME280;21134;49.646;8.560;2023-01-29T06:14:32;101806.13;;;-0.54;83.96
34931;BME280;21134;49.646;8.560;2023-01-29T06:16:59;101803.69;;;-0.53;83.87
34931;BME280;21134;49.646;8.560;2023-01-29T06:19:25;101804.47;;;-0.54;84.00
34931;BME280;21134;49.646;8.560;2023-01-29T06:21:52;101807.06;;;-0.52;84.16
34931;BME280;21134;49.646;8.560;2023-01-29T06:24:18;101798.75;;;-0.51;83.93
34931;BME280;21134;49.646;8.560;2023-01-29T06:26:45;101799.53;;;-0.52;83.67
34931;BME280;21134;49.646;8.560;2023-01-29T06:29:13;101797.78;;;-0.53;83.05
34931;BME280;21134;49.646;8.560;2023-01-29T06:31:39;101792.56;;;-0.56;84.43
34931;BME280;21134;49.646;8.560;2023-01-29T06:34:06;101795.16;;;-0.55;83.76
34931;BME280;21134;49.646;8.560;2023-01-29T06:36:32;101794.28;;;-0.55;84.00
34931;BME280;21134;49.646;8.560;2023-01-29T06:38:59;101787.41;;;-0.58;83.68
34931;BME280;21134;49.646;8.560;2023-01-29T06:41:25;101779.00;;;-0.58;83.54
34931;BME280;21134;49.646;8.560;2023-01-29T06:43:52;101783.38;;;-0.56;83.02
34931;BME280;21134;49.646;8.560;2023-01-29T06:46:20;101789.25;;;-0.55;82.60
34931;BME280;21134;49.646;8.560;2023-01-29T06:48:47;101794.28;;;-0.55;82.11
34931;BME280;21134;49.646;8.560;2023-01-29T06:51:13;101799.25;;;-0.57;81.11
34931;BME280;21134;49.646;8.560;2023-01-29T06:53:40;101793.72;;;-0.51;81.54
34931;BME280;21134;49.646;8.560;2023-01-29T06:56:07;101798.06;;;-0.49;80.22
34931;BME280;21134;49.646;8.560;2023-01-29T06:58:35;101807.19;;;-0.51;80.63
34931;BME280;21134;49.646;8.560;2023-01-29T07:01:03;101806.97;;;-0.54;80.32
34931;BME280;21134;49.646;8.560;2023-01-29T07:03:31;101802.69;;;-0.55;81.10
34931;BME280;21134;49.646;8.560;2023-01-29T07:05:57;101798.66;;;-0.53;81.27
34931;BME280;21134;49.646;8.560;2023-01-29T07:08:24;101798.66;;;-0.53;81.00
34931;BME280;21134;49.646;8.560;2023-01-29T07:10:50;101793.53;;;-0.54;80.87
34931;BME280;21134;49.646;8.560;2023-01-29T07:13:17;101798.66;;;-0.53;80.75
34931;BME280;21134;49.646;8.560;2023-01-29T07:15:43;101803.59;;;-0.54;80.64
34931;BME280;21134;49.646;8.560;2023-01-29T07:18:10;101809.50;;;-0.54;80.43
34931;BME280;21134;49.646;8.560;2023-01-29T07:20:39;101805.13;;;-0.56;81.08
34931;BME280;21134;49.646;8.560;2023-01-29T07:23:06;101801.75;;;-0.57;81.06
34931;BME280;21134;49.646;8.560;2023-01-29T07:25:34;101801.94;;;-0.54;80.87
34931;BME280;21134;49.646;8.560;2023-01-29T07:28:01;101807.06;;;-0.52;80.58
34931;BME280;21134;49.646;8.560;2023-01-29T07:30:28;101809.50;;;-0.54;80.92
34931;BME280;21134;49.646;8.560;2023-01-29T07:33:00;101813.53;;;-0.56;80.69
34931;BME280;21134;49.646;8.560;2023-01-29T07:35:27;101811.59;;;-0.60;81.13
34931;BME280;21134;49.646;8.560;2023-01-29T07:37:54;101818.69;;;-0.54;80.26
34931;BME280;21134;49.646;8.560;2023-01-29T07:40:21;101826.97;;;-0.55;80.47
34931;BME280;21134;49.646;8.560;2023-01-29T07:42:47;101822.59;;;-0.58;80.18
34931;BME280;21134;49.646;8.560;2023-01-29T07:45:14;101826.03;;;-0.57;80.85
34931;BME280;21134;49.646;8.560;2023-01-29T07:47:40;101832.78;;;-0.56;81.31
34931;BME280;21134;49.646;8.560;2023-01-29T07:50:08;101837.03;;;-0.55;81.64
34931;BME280;21134;49.646;8.560;2023-01-29T07:52:34;101834.50;;;-0.55;81.60
34931;BME280;21134;49.646;8.560;2023-01-29T07:55:02;101832.53;;;-0.48;80.04
34931;BME280;21134;49.646;8.560;2023-01-29T07:57:29;101829.03;;;-0.50;80.43
34931;BME280;21134;49.646;8.560;2023-01-29T07:59:55;101838.28;;;-0.49;81.04
34931;BME280;21134;49.646;8.560;2023-01-29T08:02:22;101830.94;;;-0.45;80.70
34931;BME280;21134;49.646;8.560;2023-01-29T08:04:48;101838.13;;;-0.38;80.84
34931;BME280;21134;49.646;8.560;2023-01-29T08:07:15;101831.56;;;-0.36;81.07
34931;BME280;21134;49.646;8.560;2023-01-29T08:09:41;101830.22;;;-0.31;80.67
34931;BME280;21134;49.646;8.560;2023-01-29T08:12:09;101825.66;;;-0.24;80.36
34931;BME280;21134;49.646;8.560;2023-01-29T08:14:35;101830.81;;;-0.22;79.29
34931;BME280;21134;49.646;8.560;2023-01-29T08:17:02;101839.41;;;-0.18;79.17
34931;BME280;21134;49.646;8.560;2023-01-29T08:19:28;101840.00;;;-0.09;78.97
34931;BME280;21134;49.646;8.560;2023-01-29T08:21:55;101822.78;;;-0.03;79.00
34931;BME280;21134;49.646;8.560;2023-01-29T08:24:21;101826.84;;;0.08;77.84
34931;BME280;21134;49.646;8.560;2023-01-29T08:26:48;101825.56;;;0.15;77.75
34931;BME280;21134;49.646;8.560;2023-01-29T08:29:15;101835.06;;;0.19;77.31
34931;BME280;21134;49.646;8.560;2023-01-29T08:31:42;101829.25;;;0.20;75.20
34931;BME280;21134;49.646;8.560;2023-01-29T08:34:08;101835.56;;;0.27;75.82
34931;BME280;21134;49.646;8.560;2023-01-29T08:36:35;101844.16;;;0.30;74.62
34931;BME280;21134;49.646;8.560;2023-01-29T08:39:01;101849.84;;;0.41;73.73
34931;BME280;21134;49.646;8.560;2023-01-29T08:41:28;101857.91;;;0.49;72.14
34931;BME280;21134;49.646;8.560;2023-01-29T08:43:54;101861.66;;;0.55;72.21
34931;BME280;21134;49.646;8.560;2023-01-29T08:46:23;101865.78;;;0.68;70.81
34931;BME280;21134;49.646;8.560;2023-01-29T08:48:49;101852.06;;;0.91;71.15
34931;BME280;21134;49.646;8.560;2023-01-29T08:51:16;101834.38;;;1.04;71.40
34931;BME280;21134;49.646;8.560;2023-01-29T08:53:42;101819.38;;;1.21;70.20
34931;BME280;21134;49.646;8.560;2023-01-29T08:56:09;101794.88;;;1.33;69.48
34931;BME280;21134;49.646;8.560;2023-01-29T08:58:35;101796.53;;;1.32;69.19
34931;BME280;21134;49.646;8.560;2023-01-29T09:01:06;101780.44;;;1.30;69.57
34931;BME280;21134;49.646;8.560;2023-01-29T09:03:34;101793.03;;;1.30;68.41
34931;BME280;21134;49.646;8.560;2023-01-29T09:06:01;101798.25;;;1.19;68.68
34931;BME280;21134;49.646;8.560;2023-01-29T09:08:27;101809.06;;;1.31;68.80
34931;BME280;21134;49.646;8.560;2023-01-29T09:10:54;101801.06;;;1.38;68.53
34931;BME280;21134;49.646;8.560;2023-01-29T09:13:20;101800.88;;;1.35;68.38
34931;BME280;21134;49.646;8.560;2023-01-29T09:15:47;101802.53;;;1.34;67.87
34931;BME280;21134;49.646;8.560;2023-01-29T09:18:13;101806.25;;;1.26;66.96
34931;BME280;21134;49.646;8.560;2023-01-29T09:20:41;101813.91;;;1.28;67.62
34931;BME280;21134;49.646;8.560;2023-01-29T09:23:09;101811.22;;;1.39;67.90
34931;BME280;21134;49.646;8.560;2023-01-29T09:25:36;101809.16;;;1.47;67.62
34931;BME280;21134;49.646;8.560;2023-01-29T09:28:03;101809.31;;;1.50;67.16
34931;BME280;21134;49.646;8.560;2023-01-29T09:30:30;101823.91;;;1.56;68.06
34931;BME280;21134;49.646;8.560;2023-01-29T09:32:59;101828.72;;;1.51;66.37
34931;BME280;21134;49.646;8.560;2023-01-29T09:35:25;101839.50;;;1.49;67.01
34931;BME280;21134;49.646;8.560;2023-01-29T09:37:53;101838.38;;;1.44;66.92
34931;BME280;21134;49.646;8.560;2023-01-29T09:40:24;101835.75;;;1.42;66.67
34931;BME280;21134;49.646;8.560;2023-01-29T09:42:55;101835.31;;;1.34;66.54
34931;BME280;21134;49.646;8.560;2023-01-29T09:45:24;101832.78;;;1.34;67.47
34931;BME280;21134;49.646;8.560;2023-01-29T09:47:55;101840.75;;;1.27;66.52
34931;BME280;21134;49.646;8.560;2023-01-29T09:50:27;101839.72;;;1.24;66.75
34931;BME280;21134;49.646;8.560;2023-01-29T09:52:59;101855.34;;;1.18;67.32
34931;BME280;21134;49.646;8.560;2023-01-29T09:55:30;101869.38;;;1.28;66.60
34931;BME280;21134;49.646;8.560;2023-01-29T09:58:02;101868.34;;;1.39;66.30
34931;BME280;21134;49.646;8.560;2023-01-29T10:00:35;101870.44;;;1.31;66.69
34931;BME280;21134;49.646;8.560;2023-01-29T10:03:31;101874.50;;;1.29;66.71
34931;BME280;21134;49.646;8.560;2023-01-29T10:06:14;101870.66;;;1.21;67.23
34931;BME280;21134;49.646;8.560;2023-01-29T10:09:08;101870.81;;;1.09;67.65
34931;BME280;21134;49.646;8.560;2023-01-29T10:11:45;101865.84;;;1.11;68.20
34931;BME280;21134;49.646;8.560;2023-01-29T10:14:26;101859.25;;;1.13;67.61
34931;BME280;21134;49.646;8.560;2023-01-29T10:17:06;101856.91;;;1.16;68.29
34931;BME280;21134;49.646;8.560;2023-01-29T10:19:48;101848.75;;;1.20;68.53
34931;BME280;21134;49.646;8.560;2023-01-29T10:22:35;101854.84;;;1.24;67.80
34931;BME280;21134;49.646;8.560;2023-01-29T10:25:10;101847.53;;;1.13;67.73
34931;BME280;21134;49.646;8.560;2023-01-29T10:27:40;101846.34;;;1.22;67.21
34931;BME280;21134;49.646;8.560;2023-01-29T10:30:16;101838.59;;;1.19;67.73
34931;BME280;21134;49.646;8.560;2023-01-29T10:32:46;101829.25;;;1.17;68.56
34931;BME280;21134;49.646;8.560;2023-01-29T10:35:20;101836.06;;;1.19;68.68
34931;BME280;21134;49.646;8.560;2023-01-29T10:37:51;101829.97;;;1.15;67.84
34931;BME280;21134;49.646;8.560;2023-01-29T10:40:22;101820.66;;;1.14;67.51
34931;BME280;21134;49.646;8.560;2023-01-29T10:42:54;101820.47;;;1.11;67.82
34931;BME280;21134;49.646;8.560;2023-01-29T10:45:29;101813.09;;;1.14;67.83
34931;BME280;21134;49.646;8.560;2023-01-29T10:48:28;101807.50;;;1.05;67.59
34931;BME280;21134;49.646;8.560;2023-01-29T10:51:09;101799.19;;;1.06;68.01
34931;BME280;21134;49.646;8.560;2023-01-29T10:53:46;101797.47;;;1.20;68.66
34931;BME280;21134;49.646;8.560;2023-01-29T10:56:26;101785.13;;;1.24;69.18
34931;BME280;21134;49.646;8.560;2023-01-29T10:58:58;101788.00;;;1.30;69.41
34931;BME280;21134;49.646;8.560;2023-01-29T11:01:26;101781.75;;;1.38;69.67
34931;BME280;21134;49.646;8.560;2023-01-29T11:03:55;101773.22;;;1.36;69.53
34931;BME280;21134;49.646;8.560;2023-01-29T11:06:27;101769.94;;;1.37;69.57
34931;BME280;21134;49.646;8.560;2023-01-29T11:08:58;101762.63;;;1.42;69.70
34931;BME280;21134;49.646;8.560;2023-01-29T11:11:34;101757.31;;;1.52;68.34
34931;BME280;21134;49.646;8.560;2023-01-29T11:14:04;101760.78;;;1.39;67.66
34931;BME280;21134;49.646;8.560;2023-01-29T11:16:39;101764.53;;;1.31;67.83
34931;BME280;21134;49.646;8.560;2023-01-29T11:19:06;101760.88;;;1.26;68.59
34931;BME280;21134;49.646;8.560;2023-01-29T11:21:49;101756.38;;;1.35;69.23
34931;BME280;21134;49.646;8.560;2023-01-29T11:24:16;101748.19;;;1.39;69.36
34931;BME280;21134;49.646;8.560;2023-01-29T11:26:45;101740.88;;;1.44;69.83
34931;BME280;21134;49.646;8.560;2023-01-29T11:29:29;101739.06;;;1.56;69.16
34931;BME280;21134;49.646;8.560;2023-01-29T11:31:58;101727.66;;;1.63;69.26
34931;BME280;21134;49.646;8.560;2023-01-29T11:34:25;101724.84;;;1.73;69.60
34931;BME280;21134;49.646;8.560;2023-01-29T11:36:56;101719.09;;;1.76;66.83
34931;BME280;21134;49.646;8.560;2023-01-29T11:39:24;101712.75;;;1.99;66.68
34931;BME280;21134;49.646;8.560;2023-01-29T11:41:55;101708.75;;;2.02;67.49
34931;BME280;21134;49.646;8.560;2023-01-29T11:44:28;101707.06;;;2.03;67.39
34931;BME280;21134;49.646;8.560;2023-01-29T11:46:56;101696.50;;;2.10;67.22
34931;BME280;21134;49.646;8.560;2023-01-29T11:49:30;101695.47;;;2.06;66.56
34931;BME280;21134;49.646;8.560;2023-01-29T11:52:00;101686.66;;;1.98;67.10
34931;BME280;21134;49.646;8.560;2023-01-29T11:54:31;101690.50;;;1.92;66.73
34931;BME280;21134;49.646;8.560;2023-01-29T11:57:01;101686.41;;;1.94;67.46
34931;BME280;21134;49.646;8.560;2023-01-29T11:59:36;101692.41;;;1.96;66.82
34931;BME280;21134;49.646;8.560;2023-01-29T12:02:21;101684.91;;;1.97;67.46
34931;BME280;21134;49.646;8.560;2023-01-29T12:04:51;101675.13;;;2.03;66.48
34931;BME280;21134;49.646;8.560;2023-01-29T12:07:19;101673.41;;;2.02;65.76
34931;BME280;21134;49.646;8.560;2023-01-29T12:09:51;101670.50;;;1.95;67.28
34931;BME280;21134;49.646;8.560;2023-01-29T12:12:37;101664.34;;;2.06;66.71
34931;BME280;21134;49.646;8.560;2023-01-29T12:15:21;101665.50;;;1.96;66.92
34931;BME280;21134;49.646;8.560;2023-01-29T12:18:03;101659.97;;;2.03;67.49
34931;BME280;21134;49.646;8.560;2023-01-29T12:20:34;101658.59;;;2.25;67.05
34931;BME280;21134;49.646;8.560;2023-01-29T12:23:13;101653.84;;;2.47;66.90
34931;BME280;21134;49.646;8.560;2023-01-29T12:25:48;101651.53;;;2.68;65.92
34931;BME280;21134;49.646;8.560;2023-01-29T12:28:26;101647.34;;;2.87;65.32
34931;BME280;21134;49.646;8.560;2023-01-29T12:31:07;101653.53;;;3.10;65.63
34931;BME280;21134;49.646;8.560;2023-01-29T12:33:41;101650.41;;;3.15;63.77
34931;BME280;21134;49.646;8.560;2023-01-29T12:36:16;101643.06;;;3.20;63.34
34931;BME280;21134;49.646;8.560;2023-01-29T12:38:44;101647.88;;;3.15;63.66
34931;BME280;21134;49.646;8.560;2023-01-29T12:41:23;101641.13;;;3.32;61.58
34931;BME280;21134;49.646;8.560;2023-01-29T12:43:56;101641.03;;;3.31;63.72
34931;BME280;21134;49.646;8.560;2023-01-29T12:46:25;101637.00;;;3.16;62.70
34931;BME280;21134;49.646;8.560;2023-01-29T12:48:54;101634.03;;;3.07;62.50
34931;BME280;21134;49.646;8.560;2023-01-29T12:51:27;101631.41;;;2.88;63.61
34931;BME280;21134;49.646;8.560;2023-01-29T12:53:56;101626.06;;;2.82;64.14
34931;BME280;21134;49.646;8.560;2023-01-29T12:56:28;101611.31;;;2.73;64.22
34931;BME280;21134;49.646;8.560;2023-01-29T12:58:59;101611.66;;;2.63;64.76
34931;BME280;21134;49.646;8.560;2023-01-29T13:01:30;101614.34;;;2.66;64.48
34931;BME280;21134;49.646;8.560;2023-01-29T13:04:01;101615.41;;;2.71;64.92
34931;BME280;21134;49.646;8.560;2023-01-29T13:06:31;101603.53;;;2.52;65.27
34931;BME280;21134;49.646;8.560;2023-01-29T13:09:02;101601.97;;;2.54;66.46
34931;BME280;21134;49.646;8.560;2023-01-29T13:11:35;101598.72;;;2.56;64.76
34931;BME280;21134;49.646;8.560;2023-01-29T13:14:11;101590.59;;;2.62;65.96